Главная страница
METAR-TAF:

METAR-TAF

Аэропорты :

Ивало, Финляндия

широта: 68-37N, долгота: 027-25E, высота над уровнем моря: 147 м

Текущие метеонаблюдения

Эта сводка был подготовлена 32 минут назад, в 20:20 UTC
Ветер 7 Узел от северо-северо-восточный
Температура 12°C
Влажность 67%
Давление 1014 hPa
Видимость 10 км и более
Нет облачности ниже 1500 м, и нет кучево-дождевой облачности

METAR: EFIV 132020Z AUTO 03007KT CAVOK 12/06 Q1014

Время: 23:52 (20:52 UTC)

Прогноз

Эта сводка был подготовлена 12 часа и 23 минут назад, в 08:29 UTC
Прогноз действительный с 13-го 09 UTC до 13-го 12 UTC
Ветер 6 Узел от восточно-северо-восточный
Видимость 10 км и более
Сплошная облачность на высоте 900 фута
изменения
С 13-го 09 UTC до 13-го 11 UTC
Отдельные облака на высоте 1500 фута

TAF: EFIV 130829Z 1309/1312 06006KT 9999 OVC009 BECMG 1309/1311 SCT015

Метеонаблюдения и прогнозы для более 4000 аэропортов (сводки METAR и TAF).

Имеющиеся станции представлены на карте желтыми и красными точками.

Чтобы увидеть название станции, наведите на нее мышь.

Затем щелкните, чтобы увидеть метеонаблюдения и метеопрогнозы.

Управление картой: чтобы увеличить масштаб, щелкните зеленые кнопки с черным крестиком; чтобы уменьшить масштаб, щелкните зеленую кнопку с тире; для просмотра соседних карт щелкайте зеленые стрелки.


METAR-TAF: